Time;durP1;ratioP1;P1;durP2;ratioP2;P2;SDS_P1;SDS_P2;PMS_P1;PMS_P2;Temp;Humidity;BMP_temperature;BMP_pressure;BME280_temperature;BME280_humidity;BME280_pressure;Samples;Min_cycle;Max_cycle;Signal;HPM_P1;HPM_P2
2021/09/19 00:00:07;;;;;;;;;;;;;;;5.82;59.50;100645.72;5018406;28;20456;-78
2021/09/19 00:02:34;;;;;;;;;;;;;;;5.74;60.24;100648.09;5041655;28;19926;-77
2021/09/19 00:04:59;;;;;;;;;;;;;;;5.73;59.49;100651.56;5009179;28;19921;-76
2021/09/19 00:07:25;;;;;;;;;;;;;;;5.69;60.18;100648.00;5011952;28;19921;-78
2021/09/19 00:09:51;;;;;;;;;;;;;;;5.73;60.79;100655.00;5014012;28;19928;-77
2021/09/19 00:12:16;;;;;;;;;;;;;;;5.75;59.28;100654.16;5013508;28;20310;-76
2021/09/19 00:14:42;;;;;;;;;;;;;;;5.79;60.33;100656.00;5015962;28;19948;-76
2021/09/19 00:17:08;;;;;;;;;;;;;;;5.74;60.14;100650.69;5040940;28;19921;-78
2021/09/19 00:19:33;;;;;;;;;;;;;;;5.71;59.73;100658.38;5009788;28;20052;-76
2021/09/19 00:21:59;;;;;;;;;;;;;;;5.73;60.38;100647.25;5027578;28;20305;-77
2021/09/19 00:24:24;;;;;;;;;;;;;;;5.72;59.29;100652.38;5042789;28;19928;-78
2021/09/19 00:26:50;;;;;;;;;;;;;;;5.71;59.49;100660.97;5012711;28;19926;-77
2021/09/19 00:29:16;;;;;;;;;;;;;;;5.73;59.76;100678.25;5044448;28;20462;-78
2021/09/19 00:31:41;;;;;;;;;;;;;;;5.72;60.25;100657.56;5040484;28;19925;-77
2021/09/19 00:34:07;;;;;;;;;;;;;;;5.71;59.85;100653.22;5044448;28;19925;-76
2021/09/19 00:36:32;;;;;;;;;;;;;;;5.70;59.70;100657.50;5012721;28;19986;-76
2021/09/19 00:38:58;;;;;;;;;;;;;;;5.68;59.97;100656.59;5010095;28;19996;-78
2021/09/19 00:41:23;;;;;;;;;;;;;;;5.68;60.33;100666.91;5029510;28;19928;-77
2021/09/19 00:43:49;;;;;;;;;;;;;;;5.71;59.28;100669.56;5042690;28;19928;-77
2021/09/19 00:46:15;;;;;;;;;;;;;;;5.67;59.67;100661.72;5029691;28;19921;-79
2021/09/19 00:48:40;;;;;;;;;;;;;;;5.66;59.37;100673.75;5009983;28;19974;-76
2021/09/19 00:51:06;;;;;;;;;;;;;;;5.66;60.21;100662.56;5018001;28;20805;-78
2021/09/19 00:53:33;;;;;;;;;;;;;;;5.67;59.51;100670.31;5010962;28;20012;-78
2021/09/19 00:56:01;;;;;;;;;;;;;;;5.70;60.35;100659.22;5026659;28;20407;-77
2021/09/19 00:58:27;;;;;;;;;;;;;;;5.73;60.01;100667.91;5010686;28;19944;-77
2021/09/19 01:00:53;;;;;;;;;;;;;;;5.76;58.87;100655.91;5042189;28;19922;-76
2021/09/19 01:03:19;;;;;;;;;;;;;;;5.76;59.17;100667.09;5023346;28;19922;-76
2021/09/19 01:05:45;;;;;;;;;;;;;;;5.70;59.38;100660.06;5011340;28;20261;-76
2021/09/19 01:08:15;;;;;;;;;;;;;;;5.64;59.27;100665.09;5009790;28;21081;-77
2021/09/19 01:10:41;;;;;;;;;;;;;;;5.64;59.86;100667.66;5043632;28;19983;-77
2021/09/19 01:13:07;;;;;;;;;;;;;;;5.56;59.08;100664.91;5010123;28;19929;-77
2021/09/19 01:15:33;;;;;;;;;;;;;;;5.52;59.75;100662.19;5011160;28;19932;-77
2021/09/19 01:17:58;;;;;;;;;;;;;;;5.51;59.80;100663.94;5008377;28;19913;-77
2021/09/19 01:20:25;;;;;;;;;;;;;;;5.58;60.03;100659.78;5041920;28;20063;-77
2021/09/19 01:23:10;;;;;;;;;;;;;;;5.54;60.14;100655.38;5005185;28;19971;-76
2021/09/19 01:25:38;;;;;;;;;;;;;;;5.62;59.22;100650.41;5008810;28;19926;-78
2021/09/19 01:28:04;;;;;;;;;;;;;;;5.61;59.65;100654.69;5016242;28;19928;-77
2021/09/19 01:30:30;;;;;;;;;;;;;;;5.61;59.43;100651.22;5009120;28;19932;-76
2021/09/19 01:32:56;;;;;;;;;;;;;;;5.60;59.11;100641.75;5015227;28;19948;-75
2021/09/19 01:35:22;;;;;;;;;;;;;;;5.56;58.67;100648.53;5009180;28;19925;-78
2021/09/19 01:37:47;;;;;;;;;;;;;;;5.44;59.29;100643.94;5008880;28;20020;-76
2021/09/19 01:40:13;;;;;;;;;;;;;;;5.43;59.45;100635.31;5027507;28;19932;-78
2021/09/19 01:42:40;;;;;;;;;;;;;;;5.37;59.53;100635.16;5007224;28;19925;-76
2021/09/19 01:45:06;;;;;;;;;;;;;;;5.37;59.45;100632.59;5009500;28;19928;-77
2021/09/19 01:47:32;;;;;;;;;;;;;;;5.46;59.37;100631.94;5010020;28;19922;-78
2021/09/19 01:49:57;;;;;;;;;;;;;;;5.50;59.15;100632.88;5041742;28;19925;-77
2021/09/19 01:52:23;;;;;;;;;;;;;;;5.46;58.59;100628.47;5006067;28;20413;-77
2021/09/19 01:54:48;;;;;;;;;;;;;;;5.36;59.41;100628.25;5039410;28;19925;-78
2021/09/19 01:57:19;;;;;;;;;;;;;;;5.30;59.45;100625.50;5006897;28;20495;-77
2021/09/19 01:59:48;;;;;;;;;;;;;;;5.24;59.37;100630.50;5037145;28;20386;-77
2021/09/19 02:02:13;;;;;;;;;;;;;;;5.23;59.91;100619.31;5007339;28;19929;-78
2021/09/19 02:04:39;;;;;;;;;;;;;;;5.22;59.61;100627.91;5038414;28;19920;-76
2021/09/19 02:07:05;;;;;;;;;;;;;;;5.21;59.64;100610.66;5041631;28;19955;-77
2021/09/19 02:09:30;;;;;;;;;;;;;;;5.22;59.76;100614.09;5039988;28;19926;-78
2021/09/19 02:11:56;;;;;;;;;;;;;;;5.27;59.84;100612.53;5025596;28;19928;-77
2021/09/19 02:14:22;;;;;;;;;;;;;;;5.35;58.91;100607.56;4998725;28;19991;-77
2021/09/19 02:16:47;;;;;;;;;;;;;;;5.36;58.76;100598.97;5011463;28;19963;-77
2021/09/19 02:19:13;;;;;;;;;;;;;;;5.34;59.38;100605.81;4999410;28;19932;-76
2021/09/19 02:21:38;;;;;;;;;;;;;;;5.34;59.13;100593.78;5022805;28;19957;-76
2021/09/19 02:24:04;;;;;;;;;;;;;;;5.40;58.76;100601.69;5023878;28;19920;-77
2021/09/19 02:26:29;;;;;;;;;;;;;;;5.49;59.40;100620.81;5010596;28;19991;-78
2021/09/19 02:28:55;;;;;;;;;;;;;;;5.48;59.33;100609.63;5008322;28;20503;-77
2021/09/19 02:31:21;;;;;;;;;;;;;;;5.42;58.66;100607.75;5007770;28;19928;-79
2021/09/19 02:33:46;;;;;;;;;;;;;;;5.39;59.15;100606.81;5011838;28;19926;-77
2021/09/19 02:36:12;;;;;;;;;;;;;;;5.45;59.06;100604.38;5007303;28;19928;-77
2021/09/19 02:38:37;;;;;;;;;;;;;;;5.45;58.45;100598.34;5041197;28;19936;-78
2021/09/19 02:41:03;;;;;;;;;;;;;;;5.46;59.09;100610.41;5009834;28;20024;-77
2021/09/19 02:43:29;;;;;;;;;;;;;;;5.48;59.40;100604.47;4982700;28;19921;-77
2021/09/19 02:45:54;;;;;;;;;;;;;;;5.31;58.77;100578.22;5014671;28;20268;-77
2021/09/19 02:48:20;;;;;;;;;;;;;;;5.49;58.72;100606.22;5009044;28;20001;-78
2021/09/19 02:50:46;;;;;;;;;;;;;;;5.46;58.59;100607.81;5006929;28;19921;-77
2021/09/19 02:53:11;;;;;;;;;;;;;;;5.21;58.66;100571.97;5007624;28;19929;-78
2021/09/19 02:55:37;;;;;;;;;;;;;;;5.41;58.76;100608.56;5027654;28;19992;-77
2021/09/19 02:58:02;;;;;;;;;;;;;;;5.45;59.30;100606.06;5017828;28;20372;-77
2021/09/19 03:00:28;;;;;;;;;;;;;;;5.19;58.09;100565.00;5042640;28;19961;-77
2021/09/19 03:02:54;;;;;;;;;;;;;;;5.41;58.77;100610.28;5043598;28;19925;-76
2021/09/19 03:05:20;;;;;;;;;;;;;;;5.42;58.66;100607.75;5012910;28;20407;-77
2021/09/19 03:07:46;;;;;;;;;;;;;;;5.45;59.10;100596.63;5016976;28;19961;-75
2021/09/19 03:10:12;;;;;;;;;;;;;;;5.45;58.93;100600.91;5034753;28;19957;-76
2021/09/19 03:12:38;;;;;;;;;;;;;;;5.40;59.23;100595.66;5047339;28;19925;-77
2021/09/19 03:15:03;;;;;;;;;;;;;;;5.35;58.92;100598.13;5046978;28;19967;-78
2021/09/19 03:17:29;;;;;;;;;;;;;;;5.34;59.34;100593.78;5012174;28;19925;-77
2021/09/19 03:19:55;;;;;;;;;;;;;;;5.36;59.59;100591.22;5043942;28;19996;-76
2021/09/19 03:22:20;;;;;;;;;;;;;;;5.36;58.57;100589.53;5015150;28;19921;-77
2021/09/19 03:24:46;;;;;;;;;;;;;;;5.38;59.59;100597.31;5052356;28;19921;-78
2021/09/19 03:27:11;;;;;;;;;;;;;;;5.35;59.27;100590.38;5037092;28;19921;-77
2021/09/19 03:29:37;;;;;;;;;;;;;;;5.24;58.98;100578.91;5017085;28;19931;-76
2021/09/19 03:32:02;;;;;;;;;;;;;;;5.32;59.37;100607.47;5036613;28;20028;-78
2021/09/19 03:34:28;;;;;;;;;;;;;;;5.28;59.00;100593.63;5028049;28;20020;-77
2021/09/19 03:36:54;;;;;;;;;;;;;;;5.31;59.33;100590.25;5019332;28;19925;-79
2021/09/19 03:39:19;;;;;;;;;;;;;;;5.27;59.35;100597.03;5042222;28;19921;-78
2021/09/19 03:41:45;;;;;;;;;;;;;;;5.34;59.85;100595.47;5011443;28;19921;-77
2021/09/19 03:44:10;;;;;;;;;;;;;;;5.30;60.31;100580.78;5040720;28;20297;-77
2021/09/19 03:46:37;;;;;;;;;;;;;;;5.27;59.81;100594.47;5010138;28;20270;-77
2021/09/19 03:49:02;;;;;;;;;;;;;;;5.35;59.21;100592.06;5042751;28;19927;-77
2021/09/19 03:51:28;;;;;;;;;;;;;;;5.34;59.64;100603.22;5010273;28;19921;-76
2021/09/19 03:53:53;;;;;;;;;;;;;;;5.31;60.56;100598.88;5008826;28;19930;-77
2021/09/19 03:56:20;;;;;;;;;;;;;;;5.33;59.55;100604.94;5041746;28;19931;-78
2021/09/19 03:58:45;;;;;;;;;;;;;;;5.36;59.90;100598.97;5041845;28;20489;-77
2021/09/19 04:01:11;;;;;;;;;;;;;;;5.35;59.01;100599.81;5012145;28;20024;-78
2021/09/19 04:03:37;;;;;;;;;;;;;;;5.35;59.86;100607.56;5030993;28;20404;-77
2021/09/19 04:06:03;;;;;;;;;;;;;;;5.39;59.69;100611.97;5025854;28;19935;-78
2021/09/19 04:08:28;;;;;;;;;;;;;;;5.50;60.57;100601.91;5011171;28;20377;-77
2021/09/19 04:10:54;;;;;;;;;;;;;;;5.52;60.39;100615.72;5025312;28;19948;-77
2021/09/19 04:13:19;;;;;;;;;;;;;;;5.58;59.71;100611.59;5054513;28;20463;-79
2021/09/19 04:15:45;;;;;;;;;;;;;;;5.64;59.57;100613.44;5010455;28;19922;-78
2021/09/19 04:18:10;;;;;;;;;;;;;;;5.58;59.29;100614.16;5014725;28;19921;-79
2021/09/19 04:20:36;;;;;;;;;;;;;;;5.48;59.20;100617.38;5021528;28;20290;-79
2021/09/19 04:23:02;;;;;;;;;;;;;;;5.46;59.76;100613.00;5028374;28;19921;-79
2021/09/19 04:25:27;;;;;;;;;;;;;;;5.49;59.81;100615.66;5009003;28;19929;-77
2021/09/19 04:27:53;;;;;;;;;;;;;;;5.52;60.57;100610.56;5010893;28;19981;-78
2021/09/19 04:30:19;;;;;;;;;;;;;;;5.64;60.68;100612.56;5009044;28;20444;-78
2021/09/19 04:32:45;;;;;;;;;;;;;;;5.68;60.17;100622.16;4993930;28;20008;-76
2021/09/19 04:35:10;;;;;;;;;;;;;;;5.69;60.21;100611.84;5011498;28;20385;-78
2021/09/19 04:37:36;;;;;;;;;;;;;;;5.77;59.99;100611.16;5012139;28;20304;-79
2021/09/19 04:40:02;;;;;;;;;;;;;;;5.88;60.04;100615.75;5007460;28;19925;-79
2021/09/19 04:42:28;;;;;;;;;;;;;;;5.89;59.91;100626.94;5027263;28;19928;-78
2021/09/19 04:44:54;;;;;;;;;;;;;;;5.90;59.10;100617.50;5019813;28;19967;-78
2021/09/19 04:47:20;;;;;;;;;;;;;;;5.85;59.09;100617.38;5042214;28;19921;-78
2021/09/19 04:49:45;;;;;;;;;;;;;;;5.93;59.84;100622.75;5021300;28;20019;-77
2021/09/19 04:52:11;;;;;;;;;;;;;;;5.82;59.24;100614.75;5010921;28;19928;-79
2021/09/19 04:54:37;;;;;;;;;;;;;;;5.78;59.91;100616.34;5009945;28;19921;-78
2021/09/19 04:57:03;;;;;;;;;;;;;;;5.84;59.42;100613.91;5014192;28;20150;-79
2021/09/19 04:59:28;;;;;;;;;;;;;;;5.88;59.49;100627.78;5042082;28;19921;-78
2021/09/19 05:01:54;;;;;;;;;;;;;;;5.97;59.64;100621.94;5011673;28;19983;-78
2021/09/19 05:04:19;;;;;;;;;;;;;;;6.01;59.71;100614.34;5027320;28;19936;-80
2021/09/19 05:06:45;;;;;;;;;;;;;;;6.07;59.47;100608.44;5027467;28;20300;-78
2021/09/19 05:09:11;;;;;;;;;;;;;;;6.08;59.45;100601.56;5011183;28;20010;-79
2021/09/19 05:11:36;;;;;;;;;;;;;;;6.10;59.21;100615.38;5010266;28;19928;-77
2021/09/19 05:14:02;;;;;;;;;;;;;;;6.21;59.03;100620.78;5025565;28;20011;-80
2021/09/19 05:16:30;;;;;;;;;;;;;;;6.13;58.83;100620.63;5027107;28;20023;-79
2021/09/19 05:18:57;;;;;;;;;;;;;;;6.14;59.17;100612.91;5008507;28;19928;-79
2021/09/19 05:21:23;;;;;;;;;;;;;;;6.21;59.50;100608.75;5008156;28;19932;-79
2021/09/19 05:23:48;;;;;;;;;;;;;;;6.28;59.31;100605.47;5026662;28;19922;-77
2021/09/19 05:26:14;;;;;;;;;;;;;;;6.31;58.48;100613.28;5045111;28;20839;-78
2021/09/19 05:28:39;;;;;;;;;;;;;;;6.30;58.45;100610.66;5030456;28;19932;-77
2021/09/19 05:31:05;;;;;;;;;;;;;;;6.30;58.96;100613.25;5013149;28;19921;-76
2021/09/19 05:33:30;;;;;;;;;;;;;;;6.29;58.32;100614.94;5046847;28;19925;-78
2021/09/19 05:35:56;;;;;;;;;;;;;;;6.33;59.22;100609.00;5028550;28;20036;-77
2021/09/19 05:38:22;;;;;;;;;;;;;;;6.43;58.69;100604.03;5038333;28;20340;-78
2021/09/19 05:40:47;;;;;;;;;;;;;;;6.53;59.04;100605.97;5014657;28;20349;-79
2021/09/19 05:43:13;;;;;;;;;;;;;;;6.69;58.64;100612.31;5014189;28;19960;-79
2021/09/19 05:45:38;;;;;;;;;;;;;;;6.62;58.09;100603.56;5023437;28;19929;-77
2021/09/19 05:48:04;;;;;;;;;;;;;;;6.63;58.83;100610.50;5021859;28;19929;-79
2021/09/19 05:50:30;;;;;;;;;;;;;;;6.65;58.30;100604.47;5025715;28;19925;-76
2021/09/19 05:52:55;;;;;;;;;;;;;;;6.76;58.28;100603.84;5009548;28;19960;-78
2021/09/19 05:55:21;;;;;;;;;;;;;;;6.87;56.95;100606.66;5012961;28;19921;-78
2021/09/19 05:57:47;;;;;;;;;;;;;;;7.02;58.06;100597.41;4997216;28;19921;-78
2021/09/19 06:00:13;;;;;;;;;;;;;;;6.92;57.10;100610.22;5043878;28;19925;-79
2021/09/19 06:02:38;;;;;;;;;;;;;;;6.86;56.85;100620.44;5010457;28;21516;-78
2021/09/19 06:05:08;;;;;;;;;;;;;;;6.77;57.10;100608.19;5021988;28;19960;-79
2021/09/19 06:07:34;;;;;;;;;;;;;;;6.83;57.84;100607.44;5007308;28;19921;-78
2021/09/19 06:09:59;;;;;;;;;;;;;;;6.88;57.66;100602.34;5019187;28;19953;-79
2021/09/19 06:12:25;;;;;;;;;;;;;;;7.03;57.20;100601.75;5015487;28;19921;-77
2021/09/19 06:14:51;;;;;;;;;;;;;;;6.92;56.62;100607.63;5014969;28;19932;-78
2021/09/19 06:17:18;;;;;;;;;;;;;;;6.93;57.63;100600.72;5058622;28;19913;-77
2021/09/19 06:19:44;;;;;;;;;;;;;;;7.14;57.59;100595.06;5060854;28;19922;-80
2021/09/19 06:22:10;;;;;;;;;;;;;;;7.25;56.39;100590.09;5014429;28;19928;-77
2021/09/19 06:24:35;;;;;;;;;;;;;;;7.17;56.19;100608.03;5007308;28;19925;-79
2021/09/19 06:27:01;;;;;;;;;;;;;;;7.00;57.01;100600.00;5027032;28;19921;-79
2021/09/19 06:29:28;;;;;;;;;;;;;;;6.96;56.54;100594.72;4995181;28;20405;-77
2021/09/19 06:31:54;;;;;;;;;;;;;;;7.06;57.21;100599.22;5024927;28;19929;-78
2021/09/19 06:34:19;;;;;;;;;;;;;;;7.18;57.19;100594.25;5009344;28;19933;-79
2021/09/19 06:36:45;;;;;;;;;;;;;;;7.23;56.35;100584.84;5024232;28;19971;-79
2021/09/19 06:39:10;;;;;;;;;;;;;;;7.24;56.71;100581.44;5009973;28;20245;-77
2021/09/19 06:41:44;;;;;;;;;;;;;;;7.37;56.62;100587.69;5025827;28;20364;-77
2021/09/19 06:44:21;;;;;;;;;;;;;;;7.47;55.84;100583.53;5006416;28;20008;-78
2021/09/19 06:46:59;;;;;;;;;;;;;;;7.57;56.13;100578.50;5038311;28;19968;-80
2021/09/19 06:49:48;;;;;;;;;;;;;;;7.66;56.70;100578.63;5023735;28;19952;-78
2021/09/19 06:52:17;;;;;;;;;;;;;;;7.86;56.40;100578.06;5005095;28;19928;-78
2021/09/19 06:55:30;;;;;;;;;;;;;;;8.04;55.50;100572.28;5038753;28;19929;-79
2021/09/19 06:58:01;;;;;;;;;;;;;;;8.08;55.02;100581.84;5037591;28;19929;-78
2021/09/19 07:00:36;;;;;;;;;;;;;;;8.11;55.54;100579.31;5009052;28;19957;-80
2021/09/19 07:03:08;;;;;;;;;;;;;;;8.14;54.96;100581.94;5006954;28;19945;-78
2021/09/19 07:05:34;;;;;;;;;;;;;;;8.16;54.63;100589.72;5007513;28;20280;-79
2021/09/19 07:08:18;;;;;;;;;;;;;;;8.14;54.96;100582.81;5008727;28;19921;-78
2021/09/19 07:10:53;;;;;;;;;;;;;;;8.10;54.44;100583.59;5025866;28;19925;-79
2021/09/19 07:14:00;;;;;;;;;;;;;;;8.08;54.72;100571.47;5006821;28;19925;-79
2021/09/19 07:16:44;;;;;;;;;;;;;;;8.18;55.50;100575.94;5015884;28;19921;-79
2021/09/19 07:19:37;;;;;;;;;;;;;;;8.56;54.29;100560.03;5045113;28;19925;-81
2021/09/19 07:22:05;;;;;;;;;;;;;;;8.63;53.74;100567.84;5026471;28;19973;-78
2021/09/19 07:24:35;;;;;;;;;;;;;;;8.53;53.70;100570.38;5047209;28;19925;-77
2021/09/19 07:27:03;;;;;;;;;;;;;;;8.52;54.00;100557.34;5044512;28;19925;-78
2021/09/19 07:29:37;;;;;;;;;;;;;;;8.69;53.75;100558.44;5001434;28;20374;-78
2021/09/19 07:32:07;;;;;;;;;;;;;;;8.68;53.80;100548.91;5026665;28;19924;-78
2021/09/19 07:34:39;;;;;;;;;;;;;;;8.76;53.26;100546.41;4998073;28;19931;-78
2021/09/19 07:37:07;;;;;;;;;;;;;;;8.81;53.25;100543.84;5020794;28;19940;-78
2021/09/19 07:39:34;;;;;;;;;;;;;;;8.86;52.78;100563.78;5039670;28;20195;-79
2021/09/19 07:42:02;;;;;;;;;;;;;;;8.76;52.34;100545.50;5029929;28;19936;-78
2021/09/19 07:44:29;;;;;;;;;;;;;;;8.72;53.27;100524.72;5038430;28;19921;-79
2021/09/19 07:46:55;;;;;;;;;;;;;;;8.99;52.91;100549.22;5017986;28;20667;-79
2021/09/19 07:49:21;;;;;;;;;;;;;;;8.97;52.17;100537.09;5024261;28;19960;-78
2021/09/19 07:51:47;;;;;;;;;;;;;;;9.00;52.66;100527.59;5027955;28;19945;-79
2021/09/19 07:54:14;;;;;;;;;;;;;;;9.02;52.40;100528.47;5011765;28;20472;-77
2021/09/19 07:56:40;;;;;;;;;;;;;;;9.07;52.75;100514.66;5033706;28;20994;-79
2021/09/19 07:59:06;;;;;;;;;;;;;;;8.94;52.04;100529.25;5027993;28;19921;-79
2021/09/19 08:01:31;;;;;;;;;;;;;;;8.91;52.53;100521.44;5032300;28;19932;-78
2021/09/19 08:03:57;;;;;;;;;;;;;;;8.82;52.42;100525.72;5013376;28;19921;-80
2021/09/19 08:06:23;;;;;;;;;;;;;;;8.92;52.88;100513.69;5028626;28;19972;-79
2021/09/19 08:08:49;;;;;;;;;;;;;;;9.13;52.30;100528.56;5012921;28;19972;-79
2021/09/19 08:11:29;;;;;;;;;;;;;;;9.18;52.09;100523.41;5042840;28;19921;-78
2021/09/19 08:14:05;;;;;;;;;;;;;;;9.10;52.12;100525.94;5014931;28;19971;-76
2021/09/19 08:16:35;;;;;;;;;;;;;;;9.01;51.79;100525.88;5042205;28;20428;-80
2021/09/19 08:19:18;;;;;;;;;;;;;;;8.99;52.20;100512.88;5011604;28;20376;-80
2021/09/19 08:21:53;;;;;;;;;;;;;;;9.01;52.08;100511.16;5026764;28;19995;-80
2021/09/19 08:24:19;;;;;;;;;;;;;;;9.10;52.34;100527.69;5041282;28;19933;-80
2021/09/19 08:26:45;;;;;;;;;;;;;;;9.11;51.50;100526.81;5012575;28;19921;-78
2021/09/19 08:29:11;;;;;;;;;;;;;;;8.97;51.63;100513.72;5010572;28;19964;-78
2021/09/19 08:31:43;;;;;;;;;;;;;;;9.01;51.79;100520.69;5008934;28;19932;-79
2021/09/19 08:34:09;;;;;;;;;;;;;;;9.01;51.72;100507.69;5007628;28;20348;-79
2021/09/19 08:36:35;;;;;;;;;;;;;;;8.86;51.44;100480.72;5019162;28;19968;-78
2021/09/19 08:39:01;;;;;;;;;;;;;;;9.01;51.62;100510.31;5013168;28;19979;-80
2021/09/19 08:41:27;;;;;;;;;;;;;;;9.03;51.73;100511.19;5011495;28;19920;-78
2021/09/19 08:43:52;;;;;;;;;;;;;;;9.19;51.41;100512.16;5014023;28;20015;-78
2021/09/19 08:46:23;;;;;;;;;;;;;;;9.28;51.10;100535.63;5042668;28;19927;-78
2021/09/19 08:48:49;;;;;;;;;;;;;;;9.36;51.47;100519.25;5044402;28;20296;-80
2021/09/19 08:51:15;;;;;;;;;;;;;;;9.48;50.87;100527.13;5025298;28;20059;-79
2021/09/19 08:53:41;;;;;;;;;;;;;;;9.47;50.91;100515.88;5009090;28;19929;-80
2021/09/19 08:56:07;;;;;;;;;;;;;;;9.40;50.26;100508.88;5027634;28;20015;-80
2021/09/19 08:58:37;;;;;;;;;;;;;;;9.37;50.55;100520.97;5012178;28;19926;-80
2021/09/19 09:01:03;;;;;;;;;;;;;;;9.39;50.49;100512.34;5013529;28;20388;-77
2021/09/19 09:03:32;;;;;;;;;;;;;;;9.49;50.08;100521.91;5043233;28;19935;-78
2021/09/19 09:06:05;;;;;;;;;;;;;;;9.54;50.47;100531.47;5034742;28;19921;-79
2021/09/19 09:08:31;;;;;;;;;;;;;;;9.48;50.23;100524.50;5034958;28;19953;-79
2021/09/19 09:10:59;;;;;;;;;;;;;;;9.41;50.20;100533.09;5010314;28;20040;-78
2021/09/19 09:13:26;;;;;;;;;;;;;;;9.44;50.59;100517.56;5029178;28;19929;-80
2021/09/19 09:16:06;;;;;;;;;;;;;;;9.58;50.32;100522.84;5028234;28;19965;-78
2021/09/19 09:18:54;;;;;;;;;;;;;;;9.15;50.17;100446.38;5028946;28;19921;-78
2021/09/19 09:21:28;;;;;;;;;;;;;;;9.42;50.06;100527.94;5038510;28;19936;-78
2021/09/19 09:23:58;;;;;;;;;;;;;;;9.34;49.70;100532.19;5014211;28;20030;-77
2021/09/19 09:26:33;;;;;;;;;;;;;;;9.29;49.86;100532.16;5027905;28;19932;-78
2021/09/19 09:29:03;;;;;;;;;;;;;;;9.32;49.89;100537.41;5009545;28;19976;-80
2021/09/19 09:31:35;;;;;;;;;;;;;;;9.23;50.19;100526.06;5016054;28;19921;-78
2021/09/19 09:34:07;;;;;;;;;;;;;;;9.30;49.92;100533.03;5009104;28;20444;-78
2021/09/19 09:36:55;;;;;;;;;;;;;;;9.34;50.27;100530.47;5015369;28;19925;-81
2021/09/19 09:39:30;;;;;;;;;;;;;;;9.31;49.83;100525.25;5005455;28;19926;-81
2021/09/19 09:42:08;;;;;;;;;;;;;;;9.29;49.90;100520.91;5013742;28;19922;-81
2021/09/19 09:44:40;;;;;;;;;;;;;;;9.41;50.23;100531.41;5008017;28;19929;-81
2021/09/19 09:47:29;;;;;;;;;;;;;;;9.55;50.28;100528.91;5039768;28;19921;-81
2021/09/19 09:50:00;;;;;;;;;;;;;;;9.42;49.82;100521.88;5003077;28;21065;-80
2021/09/19 09:52:25;;;;;;;;;;;;;;;9.41;50.46;100526.19;5026873;28;20048;-80
2021/09/19 09:55:00;;;;;;;;;;;;;;;9.47;50.17;100520.16;5043228;28;19925;-77
2021/09/19 09:57:25;;;;;;;;;;;;;;;9.41;49.93;100530.50;5039485;28;19932;-79
2021/09/19 09:59:51;;;;;;;;;;;;;;;9.32;50.50;100514.00;5012592;28;19921;-78
2021/09/19 10:02:18;;;;;;;;;;;;;;;9.30;50.63;100515.72;5049171;28;19932;-84
2021/09/19 10:04:46;;;;;;;;;;;;;;;9.38;49.85;100523.56;5043700;28;19960;-79
2021/09/19 10:07:15;;;;;;;;;;;;;;;9.37;50.51;100508.00;5015861;28;20008;-76
2021/09/19 10:09:43;;;;;;;;;;;;;;;9.43;49.48;100518.41;5016974;28;20007;-76
2021/09/19 10:12:09;;;;;;;;;;;;;;;9.44;50.20;100514.94;5051537;28;19921;-76
2021/09/19 10:14:39;;;;;;;;;;;;;;;9.41;50.06;100505.41;5038315;28;19937;-76
2021/09/19 10:17:07;;;;;;;;;;;;;;;9.37;49.85;100498.47;5021245;28;19922;-75
2021/09/19 10:19:36;;;;;;;;;;;;;;;9.34;50.03;100494.13;5021078;28;20070;-76
2021/09/19 10:22:02;;;;;;;;;;;;;;;9.41;50.21;100486.34;5052744;28;19937;-77
2021/09/19 10:24:27;;;;;;;;;;;;;;;9.53;49.68;100488.16;5021586;28;19997;-77
2021/09/19 10:26:54;;;;;;;;;;;;;;;9.57;49.54;100480.41;5021886;28;20017;-77
2021/09/19 10:29:21;;;;;;;;;;;;;;;9.62;49.10;100489.09;5021589;28;20021;-75
2021/09/19 10:31:46;;;;;;;;;;;;;;;9.57;49.79;100490.81;5042146;28;19921;-75
2021/09/19 10:34:23;;;;;;;;;;;;;;;9.69;49.65;100478.75;5030173;28;19935;-74
2021/09/19 10:36:52;;;;;;;;;;;;;;;9.68;49.45;100477.88;5028739;28;19925;-77
2021/09/19 10:39:24;;;;;;;;;;;;;;;9.54;49.11;100470.00;5062304;28;19928;-80
2021/09/19 10:42:10;;;;;;;;;;;;;;;9.57;49.01;100480.41;5047079;28;20059;-77
2021/09/19 10:44:45;;;;;;;;;;;;;;;9.43;49.54;100493.31;5052876;28;19914;-76
2021/09/19 10:47:26;;;;;;;;;;;;;;;9.43;49.90;100471.66;5068872;28;19916;-76
2021/09/19 10:50:11;;;;;;;;;;;;;;;9.58;49.49;100465.69;5067573;28;19984;-77
2021/09/19 10:52:42;;;;;;;;;;;;;;;9.48;49.48;100460.44;5026464;28;19924;-76
2021/09/19 10:55:25;;;;;;;;;;;;;;;9.56;49.74;100464.81;5025073;28;19974;-77
2021/09/19 10:57:58;;;;;;;;;;;;;;;9.57;49.51;100463.94;5014556;28;19975;-77
2021/09/19 11:00:23;;;;;;;;;;;;;;;9.54;49.05;100451.81;5016398;28;19922;-75
2021/09/19 11:03:06;;;;;;;;;;;;;;;9.49;49.34;100461.31;5028813;28;19972;-78
2021/09/19 11:05:33;;;;;;;;;;;;;;;9.57;49.77;100458.75;5047020;28;19921;-74
2021/09/19 11:08:08;;;;;;;;;;;;;;;9.60;48.92;100464.81;5048669;28;19975;-77
2021/09/19 11:11:02;;;;;;;;;;;;;;;9.54;48.91;100459.63;5029635;28;20059;-76
2021/09/19 11:13:32;;;;;;;;;;;;;;;9.47;49.40;100465.63;5018423;28;20392;-76
2021/09/19 11:16:04;;;;;;;;;;;;;;;9.51;48.95;100462.19;5008155;28;19991;-78
2021/09/19 11:18:37;;;;;;;;;;;;;;;9.56;49.37;100462.19;5017021;28;19921;-75
2021/09/19 11:21:20;;;;;;;;;;;;;;;9.59;49.57;100441.44;5014476;28;19929;-79
2021/09/19 11:23:46;;;;;;;;;;;;;;;9.65;49.46;100457.06;5010855;28;19921;-78
2021/09/19 11:26:16;;;;;;;;;;;;;;;9.67;49.04;100441.47;5012129;28;20444;-76
2021/09/19 11:28:42;;;;;;;;;;;;;;;9.79;48.88;100444.16;5014282;28;19921;-79
2021/09/19 11:31:08;;;;;;;;;;;;;;;9.74;49.05;100438.06;5019348;28;19921;-79
2021/09/19 11:33:35;;;;;;;;;;;;;;;9.76;49.15;100438.94;5021632;28;20043;-78
2021/09/19 11:36:03;;;;;;;;;;;;;;;9.65;48.84;100438.88;5010654;28;20346;-79
2021/09/19 11:38:35;;;;;;;;;;;;;;;9.74;49.35;100451.91;5028344;28;19968;-79
2021/09/19 11:41:02;;;;;;;;;;;;;;;9.69;48.83;100427.66;5028512;28;20348;-76
2021/09/19 11:44:06;;;;;;;;;;;;;;;9.57;49.26;100440.56;5042617;28;19984;-76
2021/09/19 11:46:34;;;;;;;;;;;;;;;9.67;49.13;100429.38;5033211;28;19921;-75
2021/09/19 11:49:00;;;;;;;;;;;;;;;9.69;49.09;100426.75;5021302;28;20027;-79
2021/09/19 11:51:25;;;;;;;;;;;;;;;9.66;49.02;100417.22;5045632;28;19972;-76
2021/09/19 11:53:53;;;;;;;;;;;;;;;9.73;49.17;100423.31;5017206;28;19987;-75
2021/09/19 11:56:21;;;;;;;;;;;;;;;9.73;49.27;100423.31;5039298;28;19925;-75
2021/09/19 11:58:47;;;;;;;;;;;;;;;9.73;49.42;100424.19;5013463;28;19944;-75
2021/09/19 12:01:13;;;;;;;;;;;;;;;9.77;49.18;100419.88;5033556;28;20259;-74
2021/09/19 12:03:39;;;;;;;;;;;;;;;9.87;49.19;100411.25;5019047;28;20246;-75
2021/09/19 12:06:05;;;;;;;;;;;;;;;9.80;48.83;100414.69;5018208;28;19921;-75
2021/09/19 12:08:33;;;;;;;;;;;;;;;9.82;49.00;100399.94;5019357;28;19988;-75
2021/09/19 12:10:59;;;;;;;;;;;;;;;9.84;48.71;100406.03;5023465;28;19921;-76
2021/09/19 12:13:29;;;;;;;;;;;;;;;9.79;49.17;100408.63;5027899;28;20416;-75
2021/09/19 12:15:59;;;;;;;;;;;;;;;9.71;48.84;100412.03;5034570;28;19927;-75
2021/09/19 12:18:27;;;;;;;;;;;;;;;9.80;49.37;100419.91;5031213;28;20011;-76
2021/09/19 12:21:19;;;;;;;;;;;;;;;9.77;48.83;100406.88;5017486;28;19929;-75
2021/09/19 12:23:45;;;;;;;;;;;;;;;9.72;48.85;100406.00;5020251;28;19921;-75
2021/09/19 12:26:21;;;;;;;;;;;;;;;9.60;48.71;100404.19;5033584;28;19971;-75
2021/09/19 12:28:49;;;;;;;;;;;;;;;9.51;49.24;100389.44;5033603;28;19988;-76
2021/09/19 12:31:32;;;;;;;;;;;;;;;9.51;48.98;100399.84;5006676;28;19924;-74
2021/09/19 12:33:58;;;;;;;;;;;;;;;9.61;49.58;100385.16;5019784;28;19925;-75
2021/09/19 12:36:28;;;;;;;;;;;;;;;9.64;49.29;100395.56;5059194;28;20409;-76
2021/09/19 12:38:55;;;;;;;;;;;;;;;9.49;49.34;100394.63;5047982;28;19930;-81
2021/09/19 12:41:21;;;;;;;;;;;;;;;9.47;49.33;100383.38;5000275;28;20412;-78
2021/09/19 12:43:47;;;;;;;;;;;;;;;9.43;49.19;100385.94;4994029;28;19964;-76
2021/09/19 12:46:14;;;;;;;;;;;;;;;9.42;49.51;100381.59;5044888;28;19932;-74
2021/09/19 12:48:43;;;;;;;;;;;;;;;9.36;49.57;100394.56;5039904;28;20411;-78
2021/09/19 12:51:13;;;;;;;;;;;;;;;9.40;49.92;100393.69;5028321;28;20056;-74
2021/09/19 12:53:40;;;;;;;;;;;;;;;9.43;49.92;100389.41;5048017;28;19945;-73